Time;durP1;ratioP1;P1;durP2;ratioP2;P2;SDS_P1;SDS_P2;PMS_P1;PMS_P2;Temp;Humidity;BMP_temperature;BMP_pressure;BME280_temperature;BME280_humidity;BME280_pressure;Samples;Min_cycle;Max_cycle;Signal;HPM_P1;HPM_P2
2023/04/15 00:00:53;;;;;;;2.17;1.73;;;4.90;92.70;;;;;;5050375;28;20273;-72
2023/04/15 00:03:20;;;;;;;2.05;1.90;;;4.90;92.40;;;;;;5050127;28;20615;-72
2023/04/15 00:05:48;;;;;;;3.00;2.35;;;4.90;92.80;;;;;;5049759;28;20236;-72
2023/04/15 00:08:17;;;;;;;4.50;2.38;;;4.90;92.20;;;;;;5049383;28;20214;-72
2023/04/15 00:10:45;;;;;;;4.10;2.25;;;4.90;92.50;;;;;;5049037;28;20235;-72
2023/04/15 00:13:12;;;;;;;3.15;2.47;;;4.90;93.20;;;;;;5049405;28;20212;-73
2023/04/15 00:15:39;;;;;;;5.85;2.60;;;4.90;93.00;;;;;;5049882;28;20228;-72
2023/04/15 00:18:07;;;;;;;3.92;2.10;;;4.90;92.70;;;;;;5049224;28;20699;-73
2023/04/15 00:20:34;;;;;;;2.63;2.13;;;4.80;92.60;;;;;;5049682;28;20234;-73
2023/04/15 00:23:02;;;;;;;3.55;2.42;;;4.80;92.70;;;;;;5049205;28;20213;-73
2023/04/15 00:25:29;;;;;;;2.63;2.42;;;4.70;92.90;;;;;;5048906;28;20594;-72
2023/04/15 00:27:56;;;;;;;2.55;2.38;;;4.70;93.10;;;;;;5049671;28;20211;-73
2023/04/15 00:30:24;;;;;;;2.63;2.42;;;4.60;93.30;;;;;;5048882;28;20701;-73
2023/04/15 00:32:51;;;;;;;2.70;2.35;;;4.60;93.30;;;;;;5049582;28;20626;-73
2023/04/15 00:35:19;;;;;;;3.13;2.72;;;4.60;93.20;;;;;;5049155;28;20330;-72
2023/04/15 00:37:46;;;;;;;2.55;2.00;;;4.60;93.20;;;;;;5049300;28;20246;-74
2023/04/15 00:40:14;;;;;;;3.35;3.05;;;4.60;93.50;;;;;;5047644;28;20530;-72
2023/04/15 00:42:41;;;;;;;3.22;2.92;;;4.60;93.30;;;;;;5049436;28;20299;-73
2023/04/15 00:45:09;;;;;;;3.25;2.22;;;4.60;93.80;;;;;;5048911;28;20231;-73
2023/04/15 00:47:37;;;;;;;2.97;2.72;;;4.60;94.30;;;;;;5048899;28;20205;-73
2023/04/15 00:50:04;;;;;;;2.92;2.70;;;4.50;94.70;;;;;;5048509;28;20211;-73
2023/04/15 00:52:33;;;;;;;6.97;2.65;;;4.50;94.90;;;;;;5048411;28;20208;-73
2023/04/15 00:55:01;;;;;;;5.65;3.00;;;4.60;94.40;;;;;;5048861;28;20203;-73
2023/04/15 00:57:29;;;;;;;4.05;3.75;;;4.70;94.10;;;;;;5048785;28;20302;-73
2023/04/15 00:59:56;;;;;;;4.00;3.70;;;4.70;94.00;;;;;;5036850;28;20235;-73
2023/04/15 01:02:24;;;;;;;5.65;3.97;;;4.70;94.30;;;;;;5028524;28;20686;-73
2023/04/15 01:04:51;;;;;;;3.13;2.83;;;4.60;94.40;;;;;;5028776;28;20234;-73
2023/04/15 01:07:18;;;;;;;3.28;2.85;;;4.60;94.60;;;;;;5035082;28;20343;-72
2023/04/15 01:09:47;;;;;;;3.47;2.90;;;4.50;94.30;;;;;;5048261;28;20204;-74
2023/04/15 01:12:15;;;;;;;2.30;2.03;;;4.40;94.00;;;;;;5047928;28;20294;-73
2023/04/15 01:14:42;;;;;;;4.15;2.72;;;4.40;94.20;;;;;;5048945;28;20250;-73
2023/04/15 01:17:10;;;;;;;4.88;2.88;;;4.50;93.90;;;;;;5048218;28;20235;-72
2023/04/15 01:19:38;;;;;;;3.72;2.22;;;4.50;93.80;;;;;;5047466;28;20204;-72
2023/04/15 01:22:06;;;;;;;4.03;2.45;;;4.50;93.60;;;;;;5048707;28;20236;-73
2023/04/15 01:24:35;;;;;;;2.88;2.55;;;4.50;93.50;;;;;;5048109;28;20423;-72
2023/04/15 01:27:04;;;;;;;2.75;2.50;;;4.50;93.70;;;;;;5047998;28;20565;-74
2023/04/15 01:29:32;;;;;;;3.53;2.63;;;4.40;93.90;;;;;;5047393;28;20443;-72
2023/04/15 01:31:59;;;;;;;7.50;2.08;;;4.40;94.40;;;;;;5047915;28;20281;-72
2023/04/15 01:34:26;;;;;;;7.30;1.98;;;4.40;94.30;;;;;;5047900;28;20196;-73
2023/04/15 01:36:53;;;;;;;1.52;1.40;;;4.40;94.40;;;;;;5048286;28;20285;-73
2023/04/15 01:39:21;;;;;;;2.45;1.75;;;4.30;94.30;;;;;;5047613;28;20353;-72
2023/04/15 01:41:48;;;;;;;1.55;1.42;;;4.30;94.10;;;;;;5047719;28;20715;-73
2023/04/15 01:44:17;;;;;;;2.55;2.35;;;4.30;94.10;;;;;;5048182;28;20250;-72
2023/04/15 01:46:45;;;;;;;2.38;2.17;;;4.30;94.40;;;;;;5047317;28;20766;-73
2023/04/15 01:49:13;;;;;;;2.00;1.77;;;4.30;94.30;;;;;;5047598;28;20215;-72
2023/04/15 01:51:40;;;;;;;1.83;1.70;;;4.30;94.40;;;;;;5047971;28;20220;-72
2023/04/15 01:54:08;;;;;;;2.50;2.30;;;4.20;94.40;;;;;;5048178;28;20203;-72
2023/04/15 01:56:34;;;;;;;2.17;1.92;;;4.20;94.20;;;;;;5047381;28;20701;-73
2023/04/15 01:59:02;;;;;;;1.45;1.17;;;4.10;94.70;;;;;;5043412;28;20212;-73
2023/04/15 02:01:31;;;;;;;5.15;1.83;;;4.10;94.90;;;;;;5042538;28;20266;-73
2023/04/15 02:03:59;;;;;;;1.80;1.52;;;4.10;94.50;;;;;;5048007;28;20684;-73
2023/04/15 02:06:28;;;;;;;3.70;3.40;;;4.10;94.40;;;;;;5047871;28;20240;-73
2023/04/15 02:08:54;;;;;;;3.83;3.47;;;4.00;94.30;;;;;;5047098;28;20207;-73
2023/04/15 02:11:22;;;;;;;3.45;2.35;;;4.00;94.30;;;;;;5046782;28;20226;-72
2023/04/15 02:13:49;;;;;;;3.00;2.80;;;4.00;94.80;;;;;;5047423;28;20208;-73
2023/04/15 02:16:17;;;;;;;5.55;2.08;;;4.00;95.40;;;;;;5047528;28;20228;-74
2023/04/15 02:18:46;;;;;;;2.72;1.98;;;3.90;95.70;;;;;;5047225;28;20212;-73
2023/04/15 02:21:13;;;;;;;1.40;1.33;;;3.80;96.10;;;;;;5047659;28;20228;-74
2023/04/15 02:23:40;;;;;;;2.25;2.05;;;3.80;96.40;;;;;;5047331;28;20708;-72
2023/04/15 02:26:07;;;;;;;1.77;1.65;;;3.90;96.70;;;;;;5047301;28;20716;-72
2023/04/15 02:28:35;;;;;;;1.30;1.10;;;3.90;97.20;;;;;;5046814;28;20192;-72
2023/04/15 02:31:05;;;;;;;2.85;1.45;;;3.90;96.90;;;;;;5047446;28;20235;-74
2023/04/15 02:33:32;;;;;;;1.63;1.23;;;3.80;97.30;;;;;;5047493;28;20227;-73
2023/04/15 02:36:00;;;;;;;2.55;2.15;;;3.80;96.90;;;;;;5047420;28;20234;-72
2023/04/15 02:38:29;;;;;;;3.13;2.13;;;3.90;96.50;;;;;;5058777;28;20278;-72
2023/04/15 02:40:58;;;;;;;3.60;2.20;;;3.90;96.40;;;;;;5048365;28;20232;-72
2023/04/15 02:43:25;;;;;;;2.67;2.47;;;3.80;96.80;;;;;;5027696;28;20236;-72
2023/04/15 02:45:52;;;;;;;1.30;1.20;;;3.80;96.90;;;;;;5027544;28;20246;-73
2023/04/15 02:48:20;;;;;;;2.13;2.03;;;3.80;96.90;;;;;;5027137;28;20213;-72
2023/04/15 02:50:47;;;;;;;1.65;1.55;;;3.70;96.70;;;;;;5027783;28;20650;-73
2023/04/15 02:53:16;;;;;;;1.50;1.40;;;3.70;96.60;;;;;;5038407;28;20223;-73
2023/04/15 02:55:43;;;;;;;1.33;1.08;;;3.60;96.60;;;;;;5047268;28;20231;-73
2023/04/15 02:58:10;;;;;;;1.05;1.05;;;3.60;96.60;;;;;;5046829;28;20213;-74
2023/04/15 03:00:38;;;;;;;1.02;1.02;;;3.50;96.40;;;;;;5011993;28;20255;-73
2023/04/15 03:03:06;;;;;;;1.83;1.55;;;3.50;96.10;;;;;;5045691;28;20692;-73
2023/04/15 03:05:34;;;;;;;1.60;1.17;;;3.50;96.10;;;;;;5047276;28;20236;-73
2023/04/15 03:08:02;;;;;;;3.45;1.95;;;3.50;96.10;;;;;;5046360;28;20204;-72
2023/04/15 03:10:31;;;;;;;2.42;1.60;;;3.40;96.30;;;;;;5047304;28;20589;-72
2023/04/15 03:12:58;;;;;;;2.45;2.25;;;3.40;96.20;;;;;;5047063;28;20204;-73
2023/04/15 03:15:26;;;;;;;2.45;2.33;;;3.50;96.30;;;;;;5047218;28;20223;-72
2023/04/15 03:17:54;;;;;;;1.92;1.60;;;3.50;96.40;;;;;;5046976;28;20212;-73
2023/04/15 03:20:23;;;;;;;5.90;3.03;;;3.50;96.50;;;;;;5046246;28;20207;-73
2023/04/15 03:22:50;;;;;;;2.30;2.20;;;3.40;96.60;;;;;;5048900;28;20269;-72
2023/04/15 03:25:17;;;;;;;1.27;1.17;;;3.40;96.90;;;;;;5050302;28;20685;-73
2023/04/15 03:27:45;;;;;;;1.63;1.42;;;3.30;96.70;;;;;;5050893;28;20207;-73
2023/04/15 03:30:12;;;;;;;0.98;0.98;;;3.30;97.00;;;;;;5049381;28;20225;-73
2023/04/15 03:32:40;;;;;;;2.83;1.80;;;3.30;97.20;;;;;;5050669;28;20665;-72
2023/04/15 03:35:07;;;;;;;8.35;1.70;;;3.40;97.20;;;;;;5050096;28;20678;-73
2023/04/15 03:37:34;;;;;;;1.80;1.48;;;3.50;97.00;;;;;;5050848;28;20208;-73
2023/04/15 03:40:02;;;;;;;4.30;1.77;;;3.40;96.70;;;;;;5049037;28;20297;-72
2023/04/15 03:42:29;;;;;;;9.15;1.55;;;3.50;96.50;;;;;;5030278;28;20235;-73
2023/04/15 03:44:57;;;;;;;0.75;0.75;;;3.50;96.50;;;;;;5030094;28;20225;-73
2023/04/15 03:47:24;;;;;;;2.00;1.67;;;3.50;96.50;;;;;;5030327;28;20255;-72
2023/04/15 03:49:51;;;;;;;1.85;1.60;;;3.30;96.70;;;;;;5029801;28;20228;-72
2023/04/15 03:52:17;;;;;;;1.65;1.55;;;3.30;96.80;;;;;;5043577;28;20227;-73
2023/04/15 03:54:44;;;;;;;1.10;1.00;;;3.40;96.40;;;;;;5046958;28;20210;-73
2023/04/15 03:57:11;;;;;;;2.83;1.55;;;3.40;96.20;;;;;;5049231;28;20278;-73
2023/04/15 03:59:38;;;;;;;1.33;1.20;;;3.40;96.30;;;;;;5040308;28;20204;-73
2023/04/15 04:02:06;;;;;;;1.80;1.25;;;3.30;96.50;;;;;;5046078;28;20239;-72
2023/04/15 04:04:33;;;;;;;1.35;1.25;;;3.30;96.50;;;;;;5049897;28;20214;-73
2023/04/15 04:07:00;;;;;;;1.75;1.65;;;3.30;97.10;;;;;;5048679;28;20258;-73
2023/04/15 04:09:27;;;;;;;1.15;1.05;;;3.20;97.50;;;;;;5048929;28;20669;-72
2023/04/15 04:11:55;;;;;;;2.15;1.77;;;3.20;97.60;;;;;;5049345;28;20700;-73
2023/04/15 04:14:28;;;;;;;2.65;2.45;;;3.20;97.80;;;;;;5049584;28;20212;-73
2023/04/15 04:16:54;;;;;;;2.63;1.30;;;3.20;98.10;;;;;;5049406;28;20231;-73
2023/04/15 04:19:22;;;;;;;1.77;1.42;;;3.20;97.60;;;;;;5049331;28;20211;-72
2023/04/15 04:21:49;;;;;;;1.50;1.40;;;3.20;97.40;;;;;;5049843;28;20232;-73
2023/04/15 04:24:16;;;;;;;0.77;0.73;;;3.20;97.40;;;;;;5049149;28;20311;-73
2023/04/15 04:26:43;;;;;;;1.08;1.08;;;3.20;97.40;;;;;;5030301;28;20686;-72
2023/04/15 04:29:10;;;;;;;2.05;1.33;;;3.10;97.10;;;;;;5028404;28;20201;-73
2023/04/15 04:31:36;;;;;;;1.10;1.00;;;3.10;97.10;;;;;;5044466;28;20696;-72
2023/04/15 04:34:03;;;;;;;1.90;1.67;;;3.10;97.00;;;;;;5049085;28;20583;-72
2023/04/15 04:36:31;;;;;;;0.98;0.73;;;3.10;96.90;;;;;;5049477;28;20314;-73
2023/04/15 04:38:58;;;;;;;1.40;1.35;;;3.00;96.90;;;;;;5048896;28;20214;-74
2023/04/15 04:41:25;;;;;;;1.23;0.95;;;3.00;97.00;;;;;;5048781;28;20234;-73
2023/04/15 04:44:30;;;;;;;2.67;1.48;;;3.10;96.90;;;;;;5058399;28;20758;-74
2023/04/15 04:46:57;;;;;;;0.93;0.93;;;3.10;96.90;;;;;;5068709;28;20252;-74
2023/04/15 04:49:23;;;;;;;3.33;2.00;;;3.20;96.80;;;;;;5067879;28;20202;-74
2023/04/15 04:51:52;;;;;;;0.70;0.70;;;3.20;96.70;;;;;;5057308;28;20704;-73
2023/04/15 04:54:20;;;;;;;2.35;1.13;;;3.30;96.70;;;;;;5047345;28;20211;-74
2023/04/15 04:56:46;;;;;;;0.95;0.95;;;3.20;96.70;;;;;;5047676;28;20647;-73
2023/04/15 04:59:13;;;;;;;0.90;0.90;;;3.30;96.80;;;;;;5042569;28;20657;-74
2023/04/15 05:01:40;;;;;;;1.85;1.45;;;3.30;96.90;;;;;;5027773;28;20247;-74
2023/04/15 05:04:07;;;;;;;0.90;0.90;;;3.30;97.00;;;;;;5043243;28;20204;-74
2023/04/15 05:06:35;;;;;;;1.70;1.60;;;3.20;97.30;;;;;;5048872;28;20234;-74
2023/04/15 05:09:03;;;;;;;2.97;1.98;;;3.20;98.00;;;;;;5047583;28;20231;-74
2023/04/15 05:11:30;;;;;;;1.00;1.00;;;3.20;97.70;;;;;;5048636;28;20600;-74
2023/04/15 05:13:58;;;;;;;0.95;0.95;;;3.20;97.60;;;;;;5048104;28;20204;-73
2023/04/15 05:16:25;;;;;;;1.42;1.10;;;3.20;97.50;;;;;;5048596;28;20238;-73
2023/04/15 05:18:52;;;;;;;0.82;0.80;;;3.20;97.30;;;;;;5047813;28;20218;-74
2023/04/15 05:21:19;;;;;;;1.40;1.30;;;3.20;97.30;;;;;;5047817;28;20223;-73
2023/04/15 05:23:46;;;;;;;1.50;0.90;;;3.30;97.20;;;;;;5048663;28;20545;-73
2023/04/15 05:26:14;;;;;;;2.00;1.73;;;3.30;97.30;;;;;;5048469;28;20232;-74
2023/04/15 05:28:41;;;;;;;2.35;1.52;;;3.30;97.30;;;;;;5047220;28;20279;-74
2023/04/15 05:31:08;;;;;;;2.78;1.20;;;3.30;97.50;;;;;;5047829;28;20232;-74
2023/04/15 05:33:35;;;;;;;0.77;0.77;;;3.50;97.40;;;;;;5048214;28;20215;-74
2023/04/15 05:36:01;;;;;;;1.95;1.85;;;3.60;97.30;;;;;;5047917;28;20323;-73
2023/04/15 05:38:28;;;;;;;1.17;1.15;;;3.70;97.20;;;;;;5047653;28;20212;-73
2023/04/15 05:40:55;;;;;;;2.92;2.55;;;3.80;96.90;;;;;;5040618;28;20224;-74
2023/04/15 05:43:23;;;;;;;1.88;1.40;;;4.00;96.70;;;;;;5028109;28;20298;-74
2023/04/15 05:45:50;;;;;;;3.03;1.80;;;4.00;96.70;;;;;;5027088;28;20565;-74
2023/04/15 05:48:17;;;;;;;1.75;1.65;;;4.20;96.90;;;;;;5045431;28;20273;-73
2023/04/15 05:50:44;;;;;;;5.90;1.52;;;4.20;96.70;;;;;;5047958;28;20235;-74
2023/04/15 05:53:11;;;;;;;2.70;1.67;;;4.30;96.50;;;;;;5048185;28;20212;-72
2023/04/15 05:55:37;;;;;;;2.58;2.13;;;4.40;96.60;;;;;;5048061;28;20606;-73
2023/04/15 05:58:04;;;;;;;4.85;3.42;;;4.50;96.30;;;;;;5049789;28;20290;-73
2023/04/15 06:00:32;;;;;;;3.78;2.40;;;4.70;96.20;;;;;;5032237;28;20240;-73
2023/04/15 06:02:59;;;;;;;2.78;2.55;;;4.80;95.90;;;;;;5027382;28;20678;-73
2023/04/15 06:05:26;;;;;;;2.40;2.00;;;4.90;96.10;;;;;;5028118;28;20718;-73
2023/04/15 06:07:53;;;;;;;4.78;3.33;;;5.00;95.70;;;;;;5027803;28;20787;-73
2023/04/15 06:10:20;;;;;;;3.70;2.58;;;5.00;95.70;;;;;;5041101;28;20222;-72
2023/04/15 06:12:47;;;;;;;2.67;2.47;;;5.10;95.20;;;;;;5046195;28;20222;-72
2023/04/15 06:15:13;;;;;;;3.80;3.25;;;5.20;95.20;;;;;;5042209;28;20201;-72
2023/04/15 06:17:41;;;;;;;3.53;3.22;;;5.30;95.10;;;;;;5036448;28;20203;-71
2023/04/15 06:20:10;;;;;;;2.85;2.63;;;5.40;94.90;;;;;;5036416;28;20189;-71
2023/04/15 06:22:37;;;;;;;4.35;2.58;;;5.60;94.90;;;;;;5038179;28;20286;-72
2023/04/15 06:25:06;;;;;;;3.10;2.80;;;5.70;94.80;;;;;;5051184;28;20208;-71
2023/04/15 06:27:33;;;;;;;1.75;1.48;;;5.80;94.60;;;;;;5045027;28;20685;-73
2023/04/15 06:30:00;;;;;;;2.55;2.08;;;6.00;94.60;;;;;;5040362;28;20205;-76
2023/04/15 06:32:27;;;;;;;2.92;2.72;;;6.00;94.20;;;;;;5047497;28;20533;-75
2023/04/15 06:34:55;;;;;;;3.10;2.72;;;6.30;94.30;;;;;;5046608;28;20295;-73
2023/04/15 06:37:22;;;;;;;2.55;2.35;;;6.50;94.40;;;;;;5047329;28;20234;-74
2023/04/15 06:39:49;;;;;;;3.83;2.40;;;6.50;94.10;;;;;;5047176;28;20212;-75
2023/04/15 06:42:16;;;;;;;7.90;3.95;;;6.60;94.20;;;;;;5054982;28;20229;-78
2023/04/15 06:44:43;;;;;;;4.18;3.78;;;6.70;94.60;;;;;;5049940;28;20694;-76
2023/04/15 06:47:11;;;;;;;3.60;2.33;;;6.80;94.00;;;;;;5055202;28;20686;-78
2023/04/15 06:49:39;;;;;;;3.15;2.25;;;6.90;93.60;;;;;;5048981;28;20215;-73
2023/04/15 06:52:07;;;;;;;1.80;1.70;;;7.00;93.40;;;;;;5058638;28;20230;-74
2023/04/15 06:54:34;;;;;;;4.45;1.95;;;7.30;93.30;;;;;;5067430;28;20213;-75
2023/04/15 06:57:01;;;;;;;2.85;2.55;;;7.30;93.20;;;;;;5069479;28;20311;-75
2023/04/15 06:59:27;;;;;;;5.80;1.98;;;7.50;93.80;;;;;;5062785;28;20205;-76
2023/04/15 07:01:54;;;;;;;3.40;2.75;;;7.60;93.20;;;;;;5050378;28;20235;-75
2023/04/15 07:04:21;;;;;;;4.05;3.75;;;7.70;92.60;;;;;;5059526;28;20218;-74
2023/04/15 07:06:48;;;;;;;2.17;1.98;;;7.80;92.60;;;;;;5046690;28;20660;-71
2023/04/15 07:09:16;;;;;;;2.47;2.20;;;7.90;92.10;;;;;;5030603;28;20225;-70
2023/04/15 07:11:42;;;;;;;3.50;2.50;;;8.00;92.30;;;;;;5036154;28;20751;-69
2023/04/15 07:14:17;;;;;;;5.78;3.30;;;8.00;92.10;;;;;;5046925;28;20743;-70
2023/04/15 07:16:51;;;;;;;3.40;2.37;;;8.00;91.90;;;;;;5035372;28;20225;-76
2023/04/15 07:19:18;;;;;;;2.80;2.60;;;8.10;92.00;;;;;;5034475;28;20639;-71
2023/04/15 07:21:44;;;;;;;2.30;1.40;;;8.30;92.00;;;;;;5047897;28;20233;-71
2023/04/15 07:24:11;;;;;;;3.87;2.10;;;8.40;91.80;;;;;;5062219;28;20743;-71
2023/04/15 07:26:39;;;;;;;2.00;1.70;;;8.40;91.60;;;;;;5044797;28;20672;-71
2023/04/15 07:29:06;;;;;;;5.23;2.50;;;8.50;91.40;;;;;;5040556;28;21023;-71
2023/04/15 07:31:33;;;;;;;2.27;2.17;;;8.50;91.00;;;;;;5035828;28;21020;-72
2023/04/15 07:34:00;;;;;;;1.90;1.80;;;8.60;91.50;;;;;;5049634;28;20757;-71
2023/04/15 07:36:28;;;;;;;2.70;2.20;;;8.90;91.80;;;;;;5047644;28;20647;-72
2023/04/15 07:38:55;;;;;;;4.33;2.43;;;9.00;91.30;;;;;;5043052;28;20657;-72
2023/04/15 07:41:21;;;;;;;2.40;2.17;;;9.20;91.20;;;;;;5044296;28;21219;-72
2023/04/15 07:43:50;;;;;;;2.00;1.90;;;9.30;90.30;;;;;;5048345;28;20635;-72
2023/04/15 07:46:17;;;;;;;5.13;4.47;;;9.60;90.20;;;;;;5043278;28;20755;-72
2023/04/15 07:48:43;;;;;;;2.00;1.50;;;9.80;90.00;;;;;;5042719;28;20628;-72
2023/04/15 07:51:11;;;;;;;6.73;1.47;;;9.80;85.50;;;;;;5048862;28;20658;-72
2023/04/15 07:53:38;;;;;;;4.07;1.10;;;9.80;86.00;;;;;;5050293;28;20637;-72
2023/04/15 07:56:05;;;;;;;1.33;1.23;;;9.80;84.70;;;;;;5039242;28;21265;-72
2023/04/15 07:58:32;;;;;;;2.37;1.77;;;9.80;84.50;;;;;;5038468;28;20631;-71
2023/04/15 08:01:00;;;;;;;1.33;1.20;;;9.80;82.60;;;;;;5040574;28;20666;-72
2023/04/15 08:03:27;;;;;;;1.87;1.30;;;9.90;83.40;;;;;;5048436;28;20632;-72
2023/04/15 08:05:54;;;;;;;1.30;1.20;;;9.90;85.10;;;;;;5048332;28;20662;-72
2023/04/15 08:08:21;;;;;;;3.10;2.90;;;10.00;84.80;;;;;;5042237;28;21222;-71
2023/04/15 08:10:48;;;;;;;2.63;1.23;;;9.90;86.20;;;;;;5045899;28;20659;-72
2023/04/15 08:13:15;;;;;;;3.97;1.67;;;9.80;85.50;;;;;;5043551;28;21199;-72
2023/04/15 08:15:42;;;;;;;8.03;1.40;;;10.00;85.10;;;;;;5045990;28;20713;-72
2023/04/15 08:18:10;;;;;;;1.83;1.70;;;10.10;83.90;;;;;;5041124;28;20633;-71
2023/04/15 08:20:37;;;;;;;1.30;1.20;;;10.30;84.00;;;;;;5043033;28;20639;-72
2023/04/15 08:23:04;;;;;;;3.03;1.90;;;10.40;83.70;;;;;;5038503;28;20622;-72
2023/04/15 08:25:31;;;;;;;2.00;1.33;;;10.60;82.50;;;;;;5038967;28;21112;-72
2023/04/15 08:27:58;;;;;;;0.93;0.93;;;10.80;83.10;;;;;;5037752;28;20662;-72
2023/04/15 08:30:25;;;;;;;1.00;0.83;;;10.80;81.50;;;;;;5042529;28;20748;-72
2023/04/15 08:32:51;;;;;;;1.27;0.97;;;10.70;77.10;;;;;;5042979;28;20631;-72
2023/04/15 08:35:20;;;;;;;2.20;1.40;;;10.70;80.00;;;;;;5041177;28;20637;-72
2023/04/15 08:37:46;;;;;;;3.03;1.73;;;10.70;79.00;;;;;;5046854;28;21207;-72
2023/04/15 08:40:13;;;;;;;1.27;1.03;;;10.80;80.40;;;;;;5042219;28;20628;-72
2023/04/15 08:42:45;;;;;;;1.67;1.00;;;10.80;78.60;;;;;;5045122;28;20628;-72
2023/04/15 08:45:12;;;;;;;0.90;0.90;;;11.10;78.30;;;;;;5040039;28;20645;-72
2023/04/15 08:47:40;;;;;;;2.83;1.77;;;11.30;78.30;;;;;;5039103;28;20693;-71
2023/04/15 08:50:10;;;;;;;1.97;1.87;;;11.30;77.60;;;;;;5038304;28;20642;-72
2023/04/15 08:52:39;;;;;;;3.43;1.50;;;11.40;77.70;;;;;;5040372;28;20735;-71
2023/04/15 08:55:09;;;;;;;2.00;1.50;;;11.60;77.50;;;;;;5040092;28;20638;-71
2023/04/15 08:57:36;;;;;;;7.00;1.13;;;11.60;76.80;;;;;;5044367;28;20636;-71
2023/04/15 09:00:04;;;;;;;1.60;1.50;;;11.70;77.30;;;;;;5039954;28;21177;-72
2023/04/15 09:02:32;;;;;;;1.03;0.97;;;11.80;76.10;;;;;;5037162;28;20989;-70
2023/04/15 09:04:58;;;;;;;1.57;1.47;;;12.00;72.40;;;;;;5037076;28;21192;-70
2023/04/15 09:07:25;;;;;;;1.40;1.10;;;12.30;73.50;;;;;;5039850;28;21053;-72
2023/04/15 09:09:53;;;;;;;1.00;0.97;;;12.50;75.60;;;;;;5046524;28;20632;-72
2023/04/15 09:12:20;;;;;;;1.47;1.00;;;12.60;72.90;;;;;;5044856;28;20661;-72
2023/04/15 09:14:48;;;;;;;1.37;1.00;;;12.60;71.40;;;;;;5046685;28;20631;-72
2023/04/15 09:17:19;;;;;;;2.00;0.97;;;12.50;70.00;;;;;;5050434;28;20645;-72
2023/04/15 09:19:46;;;;;;;0.90;0.90;;;12.30;69.10;;;;;;5049788;28;20632;-72
2023/04/15 09:22:13;;;;;;;1.30;1.20;;;12.30;69.40;;;;;;5037798;28;20659;-72
2023/04/15 09:24:42;;;;;;;1.30;1.00;;;12.50;70.00;;;;;;5037291;28;20704;-72
2023/04/15 09:27:10;;;;;;;1.53;1.00;;;12.60;67.10;;;;;;5036363;28;20768;-72
2023/04/15 09:29:37;;;;;;;1.40;1.30;;;12.90;70.30;;;;;;5038788;28;20629;-72
2023/04/15 09:32:11;;;;;;;2.10;0.93;;;13.00;68.80;;;;;;5041759;28;20655;-72
2023/04/15 09:34:38;;;;;;;3.70;1.20;;;13.20;70.10;;;;;;5042064;28;20625;-72
2023/04/15 09:37:05;;;;;;;0.97;0.93;;;13.20;65.70;;;;;;5037568;28;20648;-72
2023/04/15 09:39:47;;;;;;;0.77;0.77;;;13.30;67.40;;;;;;5036812;28;20626;-73
2023/04/15 09:42:23;;;;;;;0.90;0.80;;;13.40;67.70;;;;;;5041690;28;21034;-72
2023/04/15 09:44:50;;;;;;;2.30;1.73;;;13.50;66.60;;;;;;5044083;28;20735;-73
2023/04/15 09:47:30;;;;;;;0.90;0.70;;;13.50;67.80;;;;;;5038465;28;20720;-73
2023/04/15 09:49:57;;;;;;;3.00;0.90;;;13.60;67.50;;;;;;5037369;28;21182;-74
2023/04/15 09:52:27;;;;;;;1.73;1.20;;;13.50;62.60;;;;;;5041128;28;20650;-77
2023/04/15 09:54:55;;;;;;;0.83;0.80;;;13.60;65.30;;;;;;5046803;28;20636;-75
2023/04/15 09:57:24;;;;;;;1.03;0.80;;;13.70;66.70;;;;;;5047839;28;20666;-74
2023/04/15 09:59:51;;;;;;;1.10;1.00;;;13.40;61.50;;;;;;5050308;28;20635;-76
2023/04/15 10:02:20;;;;;;;0.87;0.70;;;13.40;65.10;;;;;;5055157;28;20656;-76
2023/04/15 10:04:48;;;;;;;3.17;1.33;;;13.70;67.50;;;;;;5046716;28;20617;-76
2023/04/15 10:07:19;;;;;;;1.83;1.00;;;13.80;66.60;;;;;;5041235;28;20666;-76
2023/04/15 10:09:46;;;;;;;2.40;1.33;;;13.70;61.60;;;;;;5052625;28;21204;-74
2023/04/15 10:12:15;;;;;;;1.30;1.20;;;13.50;59.10;;;;;;5047636;28;20662;-76
2023/04/15 10:14:44;;;;;;;3.83;1.07;;;13.20;59.40;;;;;;5047258;28;20626;-75
2023/04/15 10:17:12;;;;;;;1.20;0.93;;;13.30;60.20;;;;;;5046811;28;21116;-75
2023/04/15 10:19:40;;;;;;;2.23;1.87;;;13.40;63.80;;;;;;5046965;28;20625;-76
2023/04/15 10:22:07;;;;;;;2.60;1.40;;;13.40;62.10;;;;;;5048548;28;21004;-76
2023/04/15 10:24:34;;;;;;;1.70;0.97;;;13.10;62.40;;;;;;5056052;28;21051;-73
2023/04/15 10:27:03;;;;;;;1.40;1.10;;;13.20;64.30;;;;;;5047364;28;21222;-72
2023/04/15 10:29:30;;;;;;;1.57;1.47;;;13.30;64.10;;;;;;5046839;28;20665;-72
2023/04/15 10:31:59;;;;;;;1.20;1.10;;;13.30;62.90;;;;;;5049670;28;20665;-72
2023/04/15 10:34:27;;;;;;;1.53;1.43;;;13.40;63.70;;;;;;5051434;28;20627;-71
2023/04/15 10:36:56;;;;;;;1.37;1.20;;;13.40;62.40;;;;;;5051302;28;20660;-72
2023/04/15 10:39:43;;;;;;;1.27;1.00;;;13.40;62.70;;;;;;5049778;28;21251;-72
2023/04/15 10:42:11;;;;;;;1.73;1.60;;;13.60;61.80;;;;;;5047879;28;20677;-72
2023/04/15 10:44:38;;;;;;;1.43;1.23;;;13.70;62.40;;;;;;5049183;28;20909;-73
2023/04/15 10:47:11;;;;;;;1.40;1.30;;;13.90;61.90;;;;;;5046262;28;20661;-74
2023/04/15 10:49:49;;;;;;;1.80;1.37;;;13.90;61.90;;;;;;5042600;28;21204;-72
2023/04/15 10:52:16;;;;;;;1.57;1.47;;;14.00;64.90;;;;;;5040727;28;20647;-72
2023/04/15 10:54:44;;;;;;;1.40;1.30;;;14.00;61.20;;;;;;5049252;28;20696;-72
2023/04/15 10:57:16;;;;;;;1.63;1.33;;;14.10;62.10;;;;;;5044233;28;21002;-72
2023/04/15 11:00:10;;;;;;;2.63;1.43;;;14.00;59.60;;;;;;5044793;28;20635;-72
2023/04/15 11:02:44;;;;;;;2.30;1.70;;;14.00;63.30;;;;;;5038664;28;20624;-73
2023/04/15 11:05:11;;;;;;;3.57;1.63;;;14.30;62.80;;;;;;5037381;28;20960;-72
2023/04/15 11:07:50;;;;;;;1.90;1.20;;;14.20;64.10;;;;;;5042140;28;20652;-72
2023/04/15 11:10:51;;;;;;;2.20;1.37;;;14.00;63.20;;;;;;5037360;28;20731;-72
2023/04/15 11:13:21;;;;;;;1.70;1.50;;;14.00;63.60;;;;;;5043659;28;20635;-72
2023/04/15 11:15:55;;;;;;;1.57;1.47;;;13.70;61.80;;;;;;5049663;28;20657;-72
2023/04/15 11:18:29;;;;;;;2.83;2.23;;;13.60;63.00;;;;;;5042403;28;20623;-72
2023/04/15 11:20:58;;;;;;;1.73;1.57;;;13.50;62.80;;;;;;5042735;28;21055;-72
2023/04/15 11:23:30;;;;;;;1.63;1.33;;;13.20;63.00;;;;;;5050501;28;20684;-72
2023/04/15 11:25:58;;;;;;;1.80;1.70;;;13.10;65.90;;;;;;5033201;28;20651;-72
2023/04/15 11:28:27;;;;;;;2.00;1.40;;;13.00;65.30;;;;;;5036057;28;20665;-72
2023/04/15 11:30:54;;;;;;;1.57;1.47;;;12.90;64.80;;;;;;5049696;28;21230;-72
2023/04/15 11:33:23;;;;;;;3.47;1.13;;;13.00;64.20;;;;;;5042844;28;20651;-72
2023/04/15 11:35:52;;;;;;;1.83;1.67;;;13.60;65.50;;;;;;5046662;28;20656;-72
2023/04/15 11:38:19;;;;;;;1.30;1.13;;;14.20;63.00;;;;;;5047747;28;20700;-72
2023/04/15 11:40:46;;;;;;;1.13;1.10;;;14.60;62.00;;;;;;5051704;28;20770;-72
2023/04/15 11:43:15;;;;;;;2.00;1.57;;;14.90;59.40;;;;;;5042134;28;20641;-72
2023/04/15 11:45:50;;;;;;;1.97;1.77;;;14.90;60.00;;;;;;5045958;28;20651;-72
2023/04/15 11:48:18;;;;;;;1.33;1.23;;;14.70;58.70;;;;;;5042546;28;20668;-73
2023/04/15 11:50:46;;;;;;;1.40;1.30;;;14.20;58.50;;;;;;5050776;28;20647;-73
2023/04/15 11:53:14;;;;;;;1.37;1.27;;;13.90;59.20;;;;;;5048138;28;20639;-73
2023/04/15 11:55:43;;;;;;;2.40;1.43;;;14.10;61.40;;;;;;5049549;28;20652;-74
2023/04/15 11:58:11;;;;;;;7.20;1.50;;;14.20;63.90;;;;;;5047299;28;20654;-73
2023/04/15 12:00:39;;;;;;;1.80;1.40;;;13.80;59.80;;;;;;5053359;28;20647;-73
2023/04/15 12:03:13;;;;;;;2.73;1.70;;;13.50;64.00;;;;;;5058823;28;21465;-75
2023/04/15 12:06:06;;;;;;;1.90;1.77;;;13.50;65.90;;;;;;5052591;28;20658;-75
2023/04/15 12:08:49;;;;;;;3.13;1.87;;;13.10;65.10;;;;;;5057721;28;20663;-75
2023/04/15 12:11:16;;;;;;;2.17;1.73;;;13.00;67.90;;;;;;5058171;28;20649;-77
2023/04/15 12:13:44;;;;;;;2.10;1.90;;;13.40;67.60;;;;;;5060648;28;20655;-76
2023/04/15 12:16:11;;;;;;;1.80;0.93;;;14.00;66.80;;;;;;5049492;28;20665;-76
2023/04/15 12:18:38;;;;;;;4.37;2.00;;;14.60;65.20;;;;;;5046407;28;21040;-75
2023/04/15 12:21:09;;;;;;;2.50;1.90;;;15.10;64.60;;;;;;5057440;28;20648;-73
2023/04/15 12:23:37;;;;;;;1.87;1.77;;;15.30;60.50;;;;;;5048893;28;20740;-72
2023/04/15 12:26:05;;;;;;;2.33;1.70;;;15.30;59.90;;;;;;5048720;28;20651;-74
2023/04/15 12:28:33;;;;;;;3.47;2.30;;;15.30;60.30;;;;;;5047752;28;20751;-76
2023/04/15 12:31:06;;;;;;;1.77;1.40;;;14.80;59.20;;;;;;5048947;28;20757;-70
2023/04/15 12:33:48;;;;;;;2.00;1.80;;;14.70;59.30;;;;;;5047981;28;20636;-71
2023/04/15 12:36:16;;;;;;;3.00;1.67;;;14.40;58.30;;;;;;5036061;28;20643;-71
2023/04/15 12:38:43;;;;;;;3.23;2.93;;;14.10;57.90;;;;;;5037971;28;20621;-72
2023/04/15 12:41:10;;;;;;;3.03;2.67;;;14.30;60.40;;;;;;5034132;28;20824;-72
2023/04/15 12:43:37;;;;;;;1.87;1.20;;;14.30;61.60;;;;;;5037973;28;20630;-72
2023/04/15 12:46:05;;;;;;;2.80;2.03;;;14.20;63.90;;;;;;5038525;28;20659;-72
2023/04/15 12:48:35;;;;;;;8.13;2.40;;;13.80;66.00;;;;;;5037559;28;20747;-72
2023/04/15 12:51:02;;;;;;;2.30;1.60;;;13.70;67.20;;;;;;5037294;28;20696;-72
2023/04/15 12:53:30;;;;;;;2.20;1.63;;;13.70;66.60;;;;;;5039246;28;20627;-72
2023/04/15 12:55:56;;;;;;;1.70;1.60;;;13.20;68.50;;;;;;5037325;28;20995;-72
2023/04/15 12:58:23;;;;;;;5.00;1.37;;;13.00;70.40;;;;;;5038791;28;20975;-72